Time;durP1;ratioP1;P1;durP2;ratioP2;P2;SDS_P1;SDS_P2;PMS_P1;PMS_P2;Temp;Humidity;BMP_temperature;BMP_pressure;BME280_temperature;BME280_humidity;BME280_pressure;Samples;Min_cycle;Max_cycle;Signal;HPM_P1;HPM_P2
2021/06/16 00:02:19;;;;;;;16.03;14.73;;;25.00;82.10;;;;;;3596730;40;20469;-64
2021/06/16 00:04:47;;;;;;;14.87;13.97;;;25.00;82.10;;;;;;3595936;40;20532;-63
2021/06/16 00:07:14;;;;;;;15.17;13.97;;;25.00;82.10;;;;;;3595798;40;20563;-63
2021/06/16 00:09:41;;;;;;;14.77;13.77;;;25.00;82.20;;;;;;3596650;40;20485;-63
2021/06/16 00:12:11;;;;;;;15.27;14.37;;;25.00;82.20;;;;;;3596613;40;20496;-64
2021/06/16 00:14:39;;;;;;;15.10;14.00;;;25.00;82.20;;;;;;3596032;40;20867;-64
2021/06/16 00:17:07;;;;;;;14.33;13.30;;;24.90;82.10;;;;;;3595434;39;20491;-64
2021/06/16 00:19:34;;;;;;;15.23;13.90;;;24.90;82.10;;;;;;3595395;40;20497;-64
2021/06/16 00:22:01;;;;;;;15.50;14.37;;;25.00;82.20;;;;;;3596258;40;20488;-64
2021/06/16 00:24:28;;;;;;;15.80;14.50;;;25.00;82.20;;;;;;3596580;40;20738;-64
2021/06/16 00:27:00;;;;;;;14.97;13.80;;;25.00;82.30;;;;;;3596527;40;20481;-64
2021/06/16 00:29:28;;;;;;;15.40;14.40;;;25.00;82.20;;;;;;3595799;40;20484;-63
2021/06/16 00:31:56;;;;;;;15.00;13.80;;;25.00;82.30;;;;;;3596246;40;20890;-64
2021/06/16 00:34:23;;;;;;;15.77;14.67;;;25.00;82.20;;;;;;3595991;40;20488;-64
2021/06/16 00:36:50;;;;;;;15.33;14.33;;;25.00;82.20;;;;;;3596406;40;20473;-63
2021/06/16 00:39:18;;;;;;;14.87;13.93;;;25.00;82.20;;;;;;3596296;40;20469;-63
2021/06/16 00:41:45;;;;;;;15.40;14.30;;;25.00;82.30;;;;;;3596406;40;20483;-64
2021/06/16 00:44:12;;;;;;;15.30;13.93;;;25.00;82.20;;;;;;3595670;40;20489;-64
2021/06/16 00:46:41;;;;;;;15.83;14.83;;;25.00;82.30;;;;;;3595954;40;20555;-63
2021/06/16 00:49:08;;;;;;;15.30;14.30;;;25.00;82.30;;;;;;3595461;40;20477;-63
2021/06/16 00:51:35;;;;;;;16.17;14.77;;;25.00;82.30;;;;;;3595770;40;20477;-64
2021/06/16 00:54:09;;;;;;;14.73;13.80;;;24.90;82.20;;;;;;3596973;40;20529;-64
2021/06/16 00:56:38;;;;;;;15.90;14.80;;;25.00;82.30;;;;;;3596077;40;21082;-63
2021/06/16 00:59:06;;;;;;;14.57;13.67;;;25.00;82.30;;;;;;3596115;40;20485;-64
2021/06/16 01:01:39;;;;;;;15.17;14.17;;;25.00;82.30;;;;;;3596163;40;20481;-63
2021/06/16 01:04:14;;;;;;;14.30;13.33;;;25.00;82.30;;;;;;3596909;40;20800;-64
2021/06/16 01:06:44;;;;;;;14.93;13.83;;;25.00;82.30;;;;;;3595991;40;20476;-64
2021/06/16 01:09:16;;;;;;;15.33;14.33;;;25.00;82.30;;;;;;3595086;40;20477;-64
2021/06/16 01:11:57;;;;;;;14.43;13.43;;;25.00;82.30;;;;;;3596317;40;20464;-63
2021/06/16 01:14:32;;;;;;;14.70;13.50;;;25.00;82.30;;;;;;3594988;40;20485;-63
2021/06/16 01:17:02;;;;;;;15.00;13.90;;;25.00;82.30;;;;;;3595336;40;20491;-63
2021/06/16 01:19:52;;;;;;;14.37;13.47;;;25.00;82.30;;;;;;3596108;40;20480;-64
2021/06/16 01:22:36;;;;;;;13.67;12.77;;;24.90;82.20;;;;;;3587071;40;21083;-63
2021/06/16 01:25:08;;;;;;;15.03;13.93;;;25.00;82.30;;;;;;3586948;40;20484;-64
2021/06/16 01:27:37;;;;;;;14.10;13.10;;;25.00;82.30;;;;;;3596715;39;20559;-63
2021/06/16 01:30:06;;;;;;;14.47;13.47;;;25.00;82.30;;;;;;3596376;40;20563;-64
2021/06/16 01:32:33;;;;;;;14.40;13.50;;;25.00;82.30;;;;;;3596252;40;20484;-64
2021/06/16 01:35:01;;;;;;;13.37;12.57;;;25.00;82.30;;;;;;3594991;40;20579;-64
2021/06/16 01:37:30;;;;;;;14.47;13.50;;;25.00;82.30;;;;;;3595879;40;20812;-64
2021/06/16 01:39:58;;;;;;;13.30;12.40;;;25.00;82.30;;;;;;3595294;40;20500;-64
2021/06/16 01:42:27;;;;;;;14.00;13.17;;;25.00;82.30;;;;;;3586648;40;20851;-63
2021/06/16 01:44:56;;;;;;;14.00;13.20;;;25.00;82.40;;;;;;3595824;40;20559;-64
2021/06/16 01:47:25;;;;;;;14.30;13.33;;;25.00;82.30;;;;;;3595277;40;20476;-64
2021/06/16 01:49:54;;;;;;;14.47;13.27;;;25.00;82.30;;;;;;3586460;40;20481;-64
2021/06/16 01:52:23;;;;;;;16.73;14.60;;;25.00;82.40;;;;;;3595287;40;21016;-64
2021/06/16 01:54:51;;;;;;;13.80;12.80;;;25.00;82.40;;;;;;3594375;40;20492;-64
2021/06/16 01:57:19;;;;;;;15.70;14.43;;;25.00;82.40;;;;;;3594412;40;20479;-64
2021/06/16 01:59:48;;;;;;;14.37;13.40;;;24.90;82.30;;;;;;3595919;40;20493;-63
2021/06/16 02:02:17;;;;;;;15.57;14.30;;;25.00;82.50;;;;;;3595760;40;20840;-63
2021/06/16 02:04:44;;;;;;;13.90;13.20;;;25.00;82.50;;;;;;3594885;40;20489;-64
2021/06/16 02:07:15;;;;;;;14.70;13.60;;;25.00;82.50;;;;;;3595396;40;20558;-63
2021/06/16 02:09:46;;;;;;;14.03;12.83;;;25.00;82.40;;;;;;3596132;40;20497;-64
2021/06/16 02:12:17;;;;;;;14.53;13.60;;;24.90;82.30;;;;;;3595826;40;21352;-64
2021/06/16 02:14:52;;;;;;;15.00;13.80;;;25.00;82.40;;;;;;3595761;40;20481;-64
2021/06/16 02:17:21;;;;;;;14.37;13.37;;;25.00;82.50;;;;;;3595837;40;20472;-63
2021/06/16 02:19:50;;;;;;;15.00;14.10;;;24.90;82.30;;;;;;3595216;40;20547;-63
2021/06/16 02:22:18;;;;;;;14.20;13.30;;;25.00;82.40;;;;;;3594998;40;21067;-64
2021/06/16 02:24:46;;;;;;;14.93;13.90;;;25.00;82.40;;;;;;3594796;40;20481;-63
2021/06/16 02:27:14;;;;;;;14.90;13.80;;;25.00;82.40;;;;;;3594869;40;20489;-64
2021/06/16 02:29:41;;;;;;;14.53;13.63;;;24.90;82.30;;;;;;3595169;40;20499;-63
2021/06/16 02:32:09;;;;;;;13.70;12.80;;;24.90;82.30;;;;;;3595344;40;20485;-63
2021/06/16 02:34:37;;;;;;;14.70;13.80;;;25.00;82.40;;;;;;3594774;40;20829;-63
2021/06/16 02:37:08;;;;;;;13.57;12.87;;;25.00;82.40;;;;;;3595143;40;20500;-64
2021/06/16 02:39:40;;;;;;;14.63;13.50;;;25.00;82.30;;;;;;3595520;39;20477;-63
2021/06/16 02:42:09;;;;;;;14.83;13.77;;;24.90;82.20;;;;;;3596458;40;20983;-64
2021/06/16 02:44:40;;;;;;;15.33;14.27;;;24.90;82.20;;;;;;3596947;40;20477;-64
2021/06/16 02:47:09;;;;;;;15.77;14.77;;;24.90;82.20;;;;;;3596034;40;20480;-63
2021/06/16 02:49:42;;;;;;;15.00;13.90;;;24.90;82.20;;;;;;3596265;40;20484;-64
2021/06/16 02:52:12;;;;;;;13.50;12.70;;;25.00;82.30;;;;;;3596319;40;20503;-64
2021/06/16 02:54:41;;;;;;;14.77;13.77;;;25.00;82.30;;;;;;3596720;40;20473;-64
2021/06/16 02:57:09;;;;;;;15.37;14.30;;;24.90;82.20;;;;;;3596319;40;20574;-64
2021/06/16 02:59:39;;;;;;;14.67;13.77;;;24.90;82.20;;;;;;3596087;40;20480;-64
2021/06/16 03:02:06;;;;;;;14.13;13.20;;;24.90;82.20;;;;;;3596473;40;20470;-64
2021/06/16 03:04:34;;;;;;;14.60;13.70;;;24.90;82.20;;;;;;3595484;40;20566;-63
2021/06/16 03:07:04;;;;;;;14.90;14.00;;;24.90;82.20;;;;;;3596575;40;20481;-64
2021/06/16 03:09:33;;;;;;;14.97;13.87;;;25.00;82.30;;;;;;3587905;40;20925;-64
2021/06/16 03:12:01;;;;;;;14.97;13.87;;;24.90;82.20;;;;;;3592956;40;20493;-64
2021/06/16 03:14:31;;;;;;;15.37;14.10;;;24.90;82.20;;;;;;3596315;40;20940;-63
2021/06/16 03:16:59;;;;;;;14.73;13.73;;;24.90;82.20;;;;;;3595722;40;20474;-63
2021/06/16 03:19:26;;;;;;;14.80;14.00;;;24.90;82.20;;;;;;3597183;40;20554;-63
2021/06/16 03:21:55;;;;;;;15.83;14.63;;;24.90;82.20;;;;;;3596344;40;20480;-64
2021/06/16 03:24:25;;;;;;;15.47;14.47;;;25.00;82.30;;;;;;3596385;40;20512;-63
2021/06/16 03:26:53;;;;;;;16.10;15.07;;;24.90;82.30;;;;;;3596491;40;20473;-63
2021/06/16 03:29:21;;;;;;;15.70;14.80;;;24.90;82.30;;;;;;3596641;40;20482;-64
2021/06/16 03:31:49;;;;;;;15.80;14.70;;;24.90;82.30;;;;;;3596135;40;21138;-63
2021/06/16 03:34:16;;;;;;;15.67;14.67;;;25.00;82.40;;;;;;3595442;40;21009;-63
2021/06/16 03:36:44;;;;;;;15.37;14.50;;;24.90;82.30;;;;;;3596084;40;20489;-64
2021/06/16 03:39:15;;;;;;;14.80;13.80;;;24.90;82.30;;;;;;3596471;40;20486;-64
2021/06/16 03:41:45;;;;;;;15.73;14.50;;;25.00;82.40;;;;;;3596190;40;20747;-63
2021/06/16 03:44:13;;;;;;;14.67;13.87;;;25.00;82.40;;;;;;3595457;40;20563;-64
2021/06/16 03:46:42;;;;;;;16.07;14.87;;;24.90;82.30;;;;;;3586320;40;20570;-63
2021/06/16 03:49:12;;;;;;;14.30;13.40;;;24.90;82.30;;;;;;3593957;40;20473;-63
2021/06/16 03:51:41;;;;;;;17.07;15.87;;;24.90;82.30;;;;;;3593503;39;20477;-63
2021/06/16 03:54:12;;;;;;;16.57;15.57;;;25.00;82.40;;;;;;3595766;40;20824;-63
2021/06/16 03:56:40;;;;;;;16.40;15.40;;;24.90;82.30;;;;;;3594899;40;20485;-63
2021/06/16 03:59:09;;;;;;;16.47;15.40;;;24.90;82.30;;;;;;3595426;40;20569;-64
2021/06/16 04:01:38;;;;;;;17.50;16.40;;;24.90;82.30;;;;;;3594999;40;20485;-63
2021/06/16 04:04:06;;;;;;;16.20;15.03;;;24.90;82.40;;;;;;3595889;40;20473;-63
2021/06/16 04:06:35;;;;;;;15.93;14.83;;;25.00;82.40;;;;;;3585937;40;20492;-63
2021/06/16 04:09:03;;;;;;;17.60;16.40;;;24.90;82.30;;;;;;3595028;40;20937;-64
2021/06/16 04:11:32;;;;;;;16.57;15.67;;;24.90;82.30;;;;;;3595418;40;20574;-63
2021/06/16 04:14:00;;;;;;;16.43;15.50;;;24.90;82.40;;;;;;3595023;40;20496;-63
2021/06/16 04:16:29;;;;;;;17.33;16.33;;;24.90;82.40;;;;;;3585204;40;20566;-63
2021/06/16 04:18:57;;;;;;;16.63;15.70;;;25.00;82.50;;;;;;3594213;40;21151;-63
2021/06/16 04:21:24;;;;;;;17.43;16.40;;;24.90;82.40;;;;;;3592429;40;20495;-63
2021/06/16 04:23:52;;;;;;;17.17;16.07;;;25.00;82.40;;;;;;3594131;40;21327;-64
2021/06/16 04:26:23;;;;;;;17.73;16.40;;;25.00;82.50;;;;;;3594086;40;20487;-63
2021/06/16 04:28:50;;;;;;;16.27;15.37;;;25.00;82.40;;;;;;3593783;40;20485;-63
2021/06/16 04:31:18;;;;;;;16.90;15.83;;;25.00;82.40;;;;;;3592545;40;20574;-64
2021/06/16 04:33:46;;;;;;;16.90;15.97;;;25.00;82.50;;;;;;3592166;40;20477;-62
2021/06/16 04:36:13;;;;;;;16.50;15.57;;;24.90;82.30;;;;;;3593122;40;20475;-63
2021/06/16 04:38:40;;;;;;;17.67;16.63;;;25.00;82.40;;;;;;3593244;40;20492;-64
2021/06/16 04:41:08;;;;;;;16.50;15.50;;;25.00;82.40;;;;;;3593569;40;20954;-63
2021/06/16 04:43:35;;;;;;;17.00;16.10;;;25.00;82.40;;;;;;3593022;40;20798;-64
2021/06/16 04:46:03;;;;;;;17.30;16.20;;;25.00;82.40;;;;;;3592190;40;20488;-64
2021/06/16 04:48:30;;;;;;;15.77;14.87;;;25.00;82.40;;;;;;3592519;40;20477;-63
2021/06/16 04:50:59;;;;;;;16.70;15.70;;;25.00;82.40;;;;;;3590058;40;20485;-64
2021/06/16 04:53:26;;;;;;;15.97;15.07;;;25.00;82.50;;;;;;3579778;40;21025;-64
2021/06/16 04:55:53;;;;;;;16.30;15.30;;;25.00;82.40;;;;;;3589993;40;20481;-63
2021/06/16 04:58:20;;;;;;;16.77;15.87;;;25.00;82.40;;;;;;3587157;40;20514;-63
2021/06/16 05:00:49;;;;;;;16.70;15.90;;;25.00;82.40;;;;;;3589695;40;20496;-63
2021/06/16 05:03:16;;;;;;;16.80;15.90;;;25.00;82.40;;;;;;3585839;39;20476;-64
2021/06/16 05:05:43;;;;;;;17.93;16.83;;;25.00;82.40;;;;;;3588582;40;20788;-63
2021/06/16 05:08:11;;;;;;;15.93;15.03;;;25.00;82.30;;;;;;3590221;40;20594;-63
2021/06/16 05:10:39;;;;;;;16.70;15.80;;;25.00;82.30;;;;;;3589135;40;21181;-63
2021/06/16 05:13:06;;;;;;;16.73;15.83;;;25.00;82.30;;;;;;3588062;40;21242;-64
2021/06/16 05:15:33;;;;;;;17.10;16.17;;;25.00;82.30;;;;;;3588598;40;20794;-63
2021/06/16 05:18:00;;;;;;;17.30;16.30;;;25.00;82.30;;;;;;3578432;40;20852;-63
2021/06/16 05:20:28;;;;;;;17.43;16.47;;;25.00;82.30;;;;;;3587991;40;20960;-64
2021/06/16 05:22:57;;;;;;;16.73;15.83;;;25.00;82.30;;;;;;3587740;40;20906;-63
2021/06/16 05:25:26;;;;;;;17.77;16.70;;;25.00;82.30;;;;;;3586398;40;20788;-64
2021/06/16 05:27:53;;;;;;;18.80;17.60;;;25.00;82.30;;;;;;3584108;40;20492;-63
2021/06/16 05:30:20;;;;;;;17.67;16.63;;;25.00;82.30;;;;;;3583852;40;20951;-64
2021/06/16 05:32:47;;;;;;;18.77;17.50;;;25.00;82.30;;;;;;3580572;40;21355;-64
2021/06/16 05:35:15;;;;;;;17.53;16.50;;;25.00;82.30;;;;;;3582791;40;20796;-64
2021/06/16 05:37:47;;;;;;;16.13;15.27;;;25.00;82.40;;;;;;3581136;39;20493;-64
2021/06/16 05:40:16;;;;;;;18.33;16.53;;;25.00;82.60;;;;;;3586518;39;20856;-64
2021/06/16 05:42:46;;;;;;;15.23;14.23;;;24.90;82.50;;;;;;3583801;40;20488;-65
2021/06/16 05:45:14;;;;;;;17.10;16.10;;;24.80;82.50;;;;;;3580844;40;20477;-64
2021/06/16 05:47:41;;;;;;;17.43;16.43;;;24.70;82.70;;;;;;3581088;39;20541;-64
2021/06/16 05:50:11;;;;;;;16.90;15.97;;;24.70;82.80;;;;;;3579671;40;20481;-65
2021/06/16 05:52:38;;;;;;;17.53;16.53;;;24.50;83.40;;;;;;3580371;40;20570;-65
2021/06/16 05:55:08;;;;;;;18.70;17.50;;;24.20;83.70;;;;;;3581443;39;20512;-65
2021/06/16 05:57:35;;;;;;;15.80;15.00;;;24.00;85.20;;;;;;3576432;39;21135;-65
2021/06/16 06:00:07;;;;;;;16.70;15.60;;;23.90;86.20;;;;;;3570487;40;20496;-65
2021/06/16 06:02:34;;;;;;;16.20;14.87;;;23.80;86.10;;;;;;3577892;40;20500;-65
2021/06/16 06:05:03;;;;;;;16.27;15.37;;;23.80;86.90;;;;;;3574739;39;20488;-65
2021/06/16 06:07:30;;;;;;;16.93;15.83;;;23.80;87.10;;;;;;3587256;39;21041;-65
2021/06/16 06:09:57;;;;;;;15.60;14.60;;;23.70;87.30;;;;;;3584252;39;20523;-65
2021/06/16 06:12:24;;;;;;;15.63;14.60;;;23.60;87.20;;;;;;3585273;39;20917;-65
2021/06/16 06:14:53;;;;;;;16.20;15.23;;;23.70;87.60;;;;;;3581414;39;20650;-65
2021/06/16 06:17:24;;;;;;;16.30;15.50;;;23.60;88.10;;;;;;3589682;39;20496;-64
2021/06/16 06:19:52;;;;;;;15.80;14.90;;;23.70;88.20;;;;;;3587672;39;20589;-65
2021/06/16 06:22:19;;;;;;;16.07;15.10;;;23.70;87.80;;;;;;3587036;39;20533;-65
2021/06/16 06:24:47;;;;;;;15.60;14.60;;;23.80;88.20;;;;;;3588135;39;20619;-65
2021/06/16 06:27:14;;;;;;;15.47;14.57;;;23.80;88.20;;;;;;3581200;39;20823;-65
2021/06/16 06:29:41;;;;;;;15.20;14.30;;;23.90;89.30;;;;;;3574048;39;20483;-65
2021/06/16 06:32:08;;;;;;;16.37;15.47;;;23.90;88.20;;;;;;3575390;39;20584;-65
2021/06/16 06:34:37;;;;;;;17.03;15.97;;;24.00;88.20;;;;;;3588170;39;20498;-65
2021/06/16 06:37:04;;;;;;;16.60;15.50;;;24.00;87.90;;;;;;3577512;39;20508;-65
2021/06/16 06:39:31;;;;;;;16.33;15.37;;;24.00;88.50;;;;;;3462658;40;21240;-65
2021/06/16 06:41:58;;;;;;;15.70;14.90;;;24.00;88.60;;;;;;3547892;40;20473;-65
2021/06/16 06:44:25;;;;;;;15.67;14.70;;;24.00;89.00;;;;;;3571457;40;20804;-65
2021/06/16 06:46:53;;;;;;;17.03;16.03;;;24.10;89.00;;;;;;3574663;40;20505;-65
2021/06/16 06:49:20;;;;;;;15.93;15.10;;;24.20;89.50;;;;;;3549869;40;20777;-65
2021/06/16 06:51:48;;;;;;;17.30;16.00;;;24.20;88.90;;;;;;3547626;40;20502;-65
2021/06/16 06:54:16;;;;;;;16.53;15.20;;;24.30;89.00;;;;;;3554679;40;20565;-65
2021/06/16 06:56:43;;;;;;;16.47;15.57;;;24.30;89.30;;;;;;3552032;40;20824;-66
2021/06/16 06:59:10;;;;;;;15.90;14.93;;;24.40;89.10;;;;;;3552002;40;20487;-66
2021/06/16 07:01:37;;;;;;;16.43;15.53;;;24.50;88.80;;;;;;3548590;40;20507;-66
2021/06/16 07:04:05;;;;;;;15.87;15.07;;;24.50;88.40;;;;;;3547918;40;20820;-66
2021/06/16 07:06:34;;;;;;;16.10;15.30;;;24.60;88.20;;;;;;3554353;40;20747;-66
2021/06/16 07:09:02;;;;;;;16.80;15.67;;;24.70;88.20;;;;;;3555183;40;20494;-66
2021/06/16 07:11:29;;;;;;;16.60;15.53;;;24.70;87.90;;;;;;3552384;40;21024;-66
2021/06/16 07:13:56;;;;;;;15.70;14.60;;;24.80;87.70;;;;;;3551367;40;20869;-66
2021/06/16 07:16:24;;;;;;;15.83;14.93;;;24.80;87.50;;;;;;3551839;40;20926;-66
2021/06/16 07:18:52;;;;;;;16.27;15.20;;;24.80;87.30;;;;;;3550088;40;20794;-66
2021/06/16 07:21:19;;;;;;;16.83;15.83;;;24.80;87.30;;;;;;3551432;40;20825;-66
2021/06/16 07:23:46;;;;;;;16.73;15.30;;;24.90;87.20;;;;;;3549062;40;20483;-66
2021/06/16 07:26:15;;;;;;;17.30;16.10;;;24.90;87.00;;;;;;3552251;40;20482;-66
2021/06/16 07:28:42;;;;;;;17.13;16.23;;;24.90;87.00;;;;;;3552267;40;20892;-66
2021/06/16 07:31:10;;;;;;;16.90;15.80;;;24.90;86.90;;;;;;3548307;40;20498;-66
2021/06/16 07:33:37;;;;;;;17.10;16.00;;;25.00;87.10;;;;;;3547700;40;20712;-66
2021/06/16 07:36:05;;;;;;;16.90;15.93;;;25.00;87.10;;;;;;3549040;40;20784;-62
2021/06/16 07:38:33;;;;;;;17.80;16.80;;;25.00;87.10;;;;;;3549914;40;20557;-62
2021/06/16 07:41:00;;;;;;;18.23;16.87;;;25.00;87.10;;;;;;3548418;40;20865;-62
2021/06/16 07:43:29;;;;;;;17.60;16.50;;;25.00;87.10;;;;;;3546128;40;20577;-63
2021/06/16 07:45:56;;;;;;;17.37;16.27;;;25.00;87.10;;;;;;3550812;40;21031;-63
2021/06/16 07:48:23;;;;;;;16.47;15.50;;;25.00;87.10;;;;;;3560452;40;20803;-63
2021/06/16 07:50:50;;;;;;;17.63;16.53;;;25.00;87.00;;;;;;3566897;39;20815;-63
2021/06/16 07:53:18;;;;;;;16.90;16.10;;;25.00;86.90;;;;;;3571974;39;20731;-62
2021/06/16 07:55:45;;;;;;;17.33;16.13;;;25.00;86.80;;;;;;3582778;39;20492;-62
2021/06/16 07:58:12;;;;;;;16.00;15.20;;;25.00;86.60;;;;;;3570966;39;20588;-63
2021/06/16 08:00:40;;;;;;;16.43;15.63;;;25.00;86.50;;;;;;3568009;40;20696;-63
2021/06/16 08:03:08;;;;;;;17.50;16.50;;;25.00;86.50;;;;;;3575718;40;20469;-62
2021/06/16 08:05:35;;;;;;;17.93;16.63;;;25.00;86.40;;;;;;3567863;40;20557;-63
2021/06/16 08:08:02;;;;;;;17.73;16.63;;;25.00;86.40;;;;;;3573824;40;20598;-63
2021/06/16 08:10:31;;;;;;;16.63;15.83;;;24.90;86.20;;;;;;3575288;39;20488;-62
2021/06/16 08:12:59;;;;;;;17.07;16.20;;;25.00;86.20;;;;;;3577430;39;20836;-62
2021/06/16 08:15:26;;;;;;;15.70;14.93;;;25.00;86.10;;;;;;3583120;39;20524;-61
2021/06/16 08:17:56;;;;;;;17.67;16.77;;;25.00;86.00;;;;;;3579181;39;20749;-62
2021/06/16 08:20:24;;;;;;;17.93;16.77;;;25.00;85.80;;;;;;3584110;39;20566;-62
2021/06/16 08:22:51;;;;;;;16.33;15.53;;;25.00;85.70;;;;;;3584836;39;20488;-62
2021/06/16 08:25:18;;;;;;;16.97;15.97;;;25.00;85.50;;;;;;3585635;39;20480;-62
2021/06/16 08:27:46;;;;;;;16.97;15.93;;;25.00;85.30;;;;;;3578136;39;20480;-61
2021/06/16 08:30:15;;;;;;;17.60;16.60;;;25.00;85.20;;;;;;3578478;39;20482;-62
2021/06/16 08:32:43;;;;;;;17.60;16.67;;;25.00;85.00;;;;;;3583566;39;20476;-62
2021/06/16 08:35:14;;;;;;;17.30;16.40;;;25.00;84.80;;;;;;3582821;39;20488;-62
2021/06/16 08:37:41;;;;;;;18.13;17.13;;;25.00;84.70;;;;;;3584533;39;20476;-63
2021/06/16 08:40:10;;;;;;;16.47;15.40;;;25.00;84.50;;;;;;3576669;39;20489;-63
2021/06/16 08:42:37;;;;;;;17.80;16.27;;;25.00;84.30;;;;;;3575886;39;20523;-62
2021/06/16 08:45:07;;;;;;;16.03;15.13;;;25.00;84.20;;;;;;3582093;39;20480;-63
2021/06/16 08:47:34;;;;;;;15.93;14.93;;;25.00;84.00;;;;;;3571944;39;20827;-63
2021/06/16 08:50:05;;;;;;;17.17;16.10;;;25.00;83.90;;;;;;3570589;40;20465;-62
2021/06/16 08:52:34;;;;;;;17.00;16.00;;;25.00;83.70;;;;;;3566345;40;20714;-62
2021/06/16 08:55:04;;;;;;;18.40;17.30;;;25.00;83.50;;;;;;3564818;40;20809;-62
2021/06/16 08:57:31;;;;;;;17.60;16.53;;;25.00;83.40;;;;;;3567539;40;20745;-62
2021/06/16 08:59:59;;;;;;;16.50;15.63;;;25.00;83.20;;;;;;3572274;40;20571;-62
2021/06/16 09:02:26;;;;;;;16.73;15.63;;;25.00;83.10;;;;;;3570729;40;20686;-62
2021/06/16 09:04:54;;;;;;;16.67;15.77;;;25.00;83.00;;;;;;3571265;40;20466;-62
2021/06/16 09:07:22;;;;;;;17.03;16.03;;;25.00;82.90;;;;;;3568686;40;20810;-62
2021/06/16 09:10:07;;;;;;;17.40;16.40;;;25.00;82.90;;;;;;3567136;40;20485;-63
2021/06/16 09:12:37;;;;;;;16.33;15.60;;;25.00;82.80;;;;;;3571560;40;21087;-63
2021/06/16 09:15:12;;;;;;;16.70;15.80;;;25.00;82.80;;;;;;3569862;40;20496;-62
2021/06/16 09:17:39;;;;;;;16.97;16.07;;;25.00;82.70;;;;;;3573651;40;20483;-63
2021/06/16 09:20:07;;;;;;;18.03;16.93;;;25.00;82.60;;;;;;3561973;40;20729;-63
2021/06/16 09:22:36;;;;;;;17.53;16.20;;;25.00;82.50;;;;;;3570404;40;20519;-62
2021/06/16 09:25:09;;;;;;;17.30;16.40;;;25.00;82.50;;;;;;3568810;40;20616;-63
2021/06/16 09:27:47;;;;;;;17.17;16.20;;;25.00;82.40;;;;;;3574575;40;20492;-63
2021/06/16 09:30:43;;;;;;;16.27;15.57;;;25.00;82.30;;;;;;3570827;40;20862;-62
2021/06/16 09:33:14;;;;;;;17.83;16.93;;;25.00;82.30;;;;;;3572747;40;20887;-62
2021/06/16 09:35:43;;;;;;;17.90;16.80;;;25.00;82.20;;;;;;3574707;39;20480;-62
2021/06/16 09:38:26;;;;;;;17.17;16.07;;;25.00;82.20;;;;;;3584144;39;20495;-62
2021/06/16 09:40:57;;;;;;;16.60;15.80;;;25.00;82.20;;;;;;3576931;39;20521;-62
2021/06/16 09:50:01;;;;;;;15.63;14.83;;;25.00;82.10;;;;;;3570647;39;20899;-63
2021/06/16 09:52:39;;;;;;;17.27;16.17;;;25.00;82.10;;;;;;3570571;40;20574;-62
2021/06/16 09:55:29;;;;;;;16.27;15.53;;;25.00;82.10;;;;;;3573839;39;20559;-63
2021/06/16 09:58:03;;;;;;;17.17;16.10;;;25.00;82.00;;;;;;3572733;39;20477;-63
2021/06/16 10:00:33;;;;;;;17.30;16.40;;;25.00;81.80;;;;;;3583611;39;20476;-62
2021/06/16 10:03:12;;;;;;;16.90;15.80;;;25.00;81.80;;;;;;3584892;39;20569;-62
2021/06/16 10:06:06;;;;;;;15.70;14.90;;;25.10;81.90;;;;;;3583263;39;20488;-63
2021/06/16 10:08:36;;;;;;;16.67;15.70;;;25.00;81.70;;;;;;3579793;39;20905;-63
2021/06/16 10:11:05;;;;;;;15.70;14.73;;;25.00;81.50;;;;;;3581022;39;20489;-62
2021/06/16 10:13:36;;;;;;;16.57;15.67;;;25.00;81.50;;;;;;3573277;40;20480;-62
2021/06/16 10:16:04;;;;;;;16.67;15.77;;;25.00;81.50;;;;;;3576710;39;20512;-62
2021/06/16 10:18:39;;;;;;;17.70;16.43;;;25.00;81.40;;;;;;3584782;39;20496;-63
2021/06/16 10:21:08;;;;;;;16.23;15.33;;;25.00;81.40;;;;;;3581510;39;20925;-62
2021/06/16 10:23:36;;;;;;;16.00;15.03;;;25.00;81.40;;;;;;3586292;39;20480;-62
2021/06/16 10:26:07;;;;;;;16.13;15.17;;;25.10;81.50;;;;;;3585331;39;20489;-63
2021/06/16 10:28:40;;;;;;;16.30;15.40;;;25.10;81.50;;;;;;3573587;39;20493;-63
2021/06/16 10:31:08;;;;;;;15.13;14.43;;;25.10;81.50;;;;;;3576381;39;20481;-62
2021/06/16 10:33:38;;;;;;;16.00;15.10;;;25.10;81.40;;;;;;3571734;40;20488;-63
2021/06/16 10:36:10;;;;;;;16.37;15.13;;;25.10;81.30;;;;;;3571889;39;20969;-63
2021/06/16 10:38:39;;;;;;;15.77;14.97;;;25.10;81.30;;;;;;3575213;40;20469;-62
2021/06/16 10:41:07;;;;;;;15.43;14.63;;;25.10;81.30;;;;;;3574957;39;20493;-62
2021/06/16 10:43:38;;;;;;;16.03;15.23;;;25.10;81.30;;;;;;3577680;39;20743;-63
2021/06/16 10:46:13;;;;;;;16.00;15.20;;;25.10;81.30;;;;;;3576367;39;20483;-62
2021/06/16 10:49:04;;;;;;;16.33;15.50;;;25.10;81.30;;;;;;3574087;40;21227;-62
2021/06/16 10:51:44;;;;;;;16.60;15.80;;;25.10;81.30;;;;;;3580669;39;21020;-63
2021/06/16 10:54:25;;;;;;;16.80;16.00;;;25.10;81.20;;;;;;3577872;40;20845;-62
2021/06/16 10:57:14;;;;;;;15.50;14.67;;;25.10;81.10;;;;;;3574462;40;20484;-62
2021/06/16 11:00:09;;;;;;;15.93;15.13;;;25.10;81.00;;;;;;3569345;39;20484;-63
2021/06/16 11:03:05;;;;;;;15.67;14.83;;;25.10;80.90;;;;;;3544734;40;21391;-62
2021/06/16 11:05:43;;;;;;;15.40;14.57;;;25.10;80.80;;;;;;3554851;40;20486;-63
2021/06/16 11:08:31;;;;;;;16.00;15.20;;;25.10;80.70;;;;;;3586585;39;20914;-63
2021/06/16 11:10:59;;;;;;;16.07;15.27;;;25.10;80.60;;;;;;3579628;39;20825;-62
2021/06/16 11:13:36;;;;;;;17.60;16.47;;;25.10;80.50;;;;;;3586583;39;20543;-63
2021/06/16 11:16:48;;;;;;;15.90;15.00;;;25.10;80.40;;;;;;3584921;39;20472;-61
2021/06/16 11:19:24;;;;;;;16.20;15.43;;;25.10;80.30;;;;;;3586682;39;21215;-62
2021/06/16 11:21:52;;;;;;;17.47;16.67;;;25.10;80.10;;;;;;3586986;39;20522;-62
2021/06/16 11:24:20;;;;;;;15.80;15.00;;;25.10;80.00;;;;;;3585120;39;20491;-66
2021/06/16 11:26:50;;;;;;;15.70;14.93;;;25.10;79.90;;;;;;3588475;39;20503;-66
2021/06/16 11:30:07;;;;;;;16.03;15.07;;;25.10;79.70;;;;;;3587453;39;20473;-66
2021/06/16 11:32:35;;;;;;;15.50;14.80;;;25.10;79.70;;;;;;3567155;39;20488;-66
2021/06/16 11:35:03;;;;;;;17.00;16.03;;;25.10;79.50;;;;;;3586122;39;20496;-67
2021/06/16 11:37:59;;;;;;;17.23;16.13;;;25.10;79.40;;;;;;3585169;39;20535;-67
2021/06/16 11:40:28;;;;;;;16.20;15.40;;;25.10;79.50;;;;;;3576559;39;21319;-67
2021/06/16 11:42:56;;;;;;;17.10;16.27;;;25.10;79.30;;;;;;3588269;39;20523;-66
2021/06/16 11:45:27;;;;;;;17.17;16.03;;;25.10;79.40;;;;;;3588414;39;20480;-66
2021/06/16 11:47:58;;;;;;;16.80;15.60;;;25.10;79.40;;;;;;3576671;40;20477;-67
2021/06/16 11:50:31;;;;;;;17.17;16.03;;;25.10;79.50;;;;;;3567509;39;20834;-67
2021/06/16 11:53:01;;;;;;;17.37;16.47;;;25.10;79.50;;;;;;3587531;39;20495;-67
2021/06/16 11:55:44;;;;;;;17.47;16.47;;;25.10;79.60;;;;;;3588512;39;20472;-67
2021/06/16 11:58:31;;;;;;;18.30;17.00;;;25.10;79.70;;;;;;3577417;39;20489;-66
2021/06/16 12:01:10;;;;;;;18.33;17.23;;;25.10;79.70;;;;;;3576940;39;20481;-66
2021/06/16 12:03:44;;;;;;;16.97;15.90;;;25.10;79.70;;;;;;3580930;39;20812;-66
2021/06/16 12:06:17;;;;;;;17.30;16.33;;;25.10;79.70;;;;;;3588542;39;20491;-66
2021/06/16 12:08:46;;;;;;;17.10;16.20;;;25.10;79.70;;;;;;3586789;39;20485;-66
2021/06/16 12:11:18;;;;;;;17.73;16.83;;;25.10;79.80;;;;;;3577454;40;20493;-68
2021/06/16 12:14:01;;;;;;;18.40;17.20;;;25.10;79.90;;;;;;3580955;39;20490;-67
2021/06/16 12:16:33;;;;;;;16.60;15.70;;;25.10;79.90;;;;;;3584634;39;20539;-66
2021/06/16 12:19:20;;;;;;;18.43;17.33;;;25.10;79.90;;;;;;3584373;39;20493;-66
2021/06/16 12:21:59;;;;;;;18.50;17.20;;;25.10;79.90;;;;;;3562342;40;20487;-66
2021/06/16 12:24:29;;;;;;;19.53;18.33;;;25.10;79.90;;;;;;3547413;40;20938;-66
2021/06/16 12:27:13;;;;;;;17.73;16.83;;;25.10;79.80;;;;;;3556152;40;20494;-66
2021/06/16 12:29:49;;;;;;;17.83;16.73;;;25.10;79.90;;;;;;3565514;40;20568;-66
2021/06/16 12:32:27;;;;;;;18.00;16.90;;;25.10;79.80;;;;;;3566828;40;20556;-68
2021/06/16 12:35:11;;;;;;;17.77;16.77;;;25.10;79.70;;;;;;3567548;40;20482;-66
2021/06/16 12:37:48;;;;;;;16.47;15.67;;;25.10;79.70;;;;;;3566669;40;20486;-66
2021/06/16 12:40:16;;;;;;;17.70;16.70;;;25.10;79.60;;;;;;3564022;40;20527;-66
2021/06/16 12:42:45;;;;;;;18.90;17.30;;;25.10;79.60;;;;;;3565309;40;20510;-66
2021/06/16 12:45:34;;;;;;;17.97;16.77;;;25.10;79.60;;;;;;3559007;40;20503;-66
2021/06/16 12:48:04;;;;;;;17.50;16.53;;;25.10;79.60;;;;;;3554868;40;20681;-66
2021/06/16 12:50:37;;;;;;;18.40;17.30;;;25.20;79.50;;;;;;3556780;40;20468;-67
2021/06/16 12:53:14;;;;;;;16.87;15.97;;;25.10;79.40;;;;;;3558409;40;20870;-67